Latest Weather Observations for Dalby

IDQ60801

Issued at 4:35 pm EST Monday 24 November 2014 (issued every 30 minutes, with the page automatically refreshed every 10 minutes)

About weather observations | Map of weather stations | Latest weather observations for QLD | Other Formats
Station Details ID: 041522 Name: DALBY AIRPORT Lat: -27.16 Lon: 151.26 Height: 343.9 m
Data from the previous 72 hours. | See also: Recent months at Dalby
Date/Time
EST
Temp
°C
App
Temp
°C
Dew
Point
Rel
Hum
%
Delta-T
°C
Wind Press
QNH
hPa
Press
MSL
hPa
Rain
since 9 am
mm
Dir
 
Spd
km/h
Gust
km/h
Spd
kts
Gust
kts
24/04:30pm 35.6 31.4 5.9 16 16.4 N 17 28 9 15 1010.8 1009.1 0.0
24/04:00pm 36.1 32.2 7.2 17 16.3 N 17 30 9 16 1010.9 1009.2 0.0
24/03:30pm 35.6 31.4 5.9 16 16.4 N 17 26 9 14 1011.3 1009.6 0.0
24/03:00pm 35.3 31.3 6.6 17 16.0 N 17 28 9 15 1011.8 1010.0 0.0
24/02:30pm 36.3 31.1 7.4 17 16.4 NNW 24 37 13 20 1012.2 1010.5 0.0
24/02:00pm 34.8 32.4 8.5 20 15.1 NNW 11 19 6 10 1012.9 1011.2 0.0
24/01:30pm 34.3 32.5 9.5 22 14.4 NNW 9 17 5 9 1013.5 1011.8 0.0
24/01:00pm 33.6 31.1 9.6 23 13.9 NW 13 20 7 11 1014.2 1012.5 0.0
24/12:30pm 33.3 29.7 10.0 24 13.6 NNE 19 28 10 15 1015.0 1013.3 0.0
24/12:00pm 32.6 30.1 11.2 27 12.6 NNE 15 33 8 18 1015.4 1013.7 0.0
24/11:30am 31.4 28.3 10.2 27 12.3 N 17 28 9 15 1016.0 1014.3 0.0
24/11:00am 31.8 29.8 14.0 34 10.9 N 17 24 9 13 1016.7 1015.0 0.0
24/10:30am 29.8 26.2 13.1 36 10.1 NNW 24 33 13 18 1017.2 1015.6 0.0
24/10:00am 29.3 26.6 13.5 38 9.5 N 20 33 11 18 1017.7 1016.1 0.0
24/09:30am 27.9 26.1 15.9 48 7.5 N 20 35 11 19 1018.1 1016.4 0.0
24/09:00am 27.4 24.6 15.4 48 7.4 N 24 33 13 18 1018.3 1016.6 4.4
24/08:30am 25.6 22.3 15.0 52 6.5 N 26 37 14 20 1018.5 1016.8 4.4
24/08:00am 24.9 21.3 15.2 54 5.9 N 28 35 15 19 1018.6 1016.9 4.4
24/07:30am 24.2 20.7 16.5 62 4.8 N 30 37 16 20 1018.7 1017.0 4.4
24/07:00am 23.5 19.5 16.3 64 4.4 N 32 39 17 21 1018.3 1016.6 4.4
24/06:30am 22.5 19.4 16.5 69 3.7 N 28 35 15 19 1018.1 1016.4 4.4
24/06:00am 21.9 18.8 16.6 72 3.3 N 28 35 15 19 1017.7 1016.1 4.4
24/05:30am 20.6 19.6 16.6 78 2.5 N 17 20 9 11 1017.4 1015.8 4.4
24/05:00am 19.7 19.4 16.5 82 2.0 NNW 13 17 7 9 1017.3 1015.7 4.4
24/04:30am 19.8 19.4 16.3 80 2.1 NNW 13 17 7 9 1016.8 1015.1 4.4
24/04:00am 20.8 19.2 16.0 74 2.9 N 19 26 10 14 1016.3 1014.6 4.4
24/03:30am 20.5 20.3 15.7 74 2.9 N 11 15 6 8 1016.2 1014.5 4.4
24/03:00am 20.5 20.1 15.1 71 3.2 N 11 15 6 8 1015.8 1014.1 4.4
24/02:30am 21.1 21.0 15.0 68 3.7 N 9 15 5 8 1015.8 1014.1 4.4
24/02:00am 22.2 21.3 14.8 63 4.4 N 13 19 7 10 1015.8 1014.1 4.4
24/01:30am 22.9 21.2 14.7 60 4.9 N 17 20 9 11 1015.7 1014.0 4.4
24/01:00am 23.3 22.8 14.8 59 5.1 N 11 15 6 8 1015.7 1014.0 4.4
24/12:30am 23.1 23.0 15.9 64 4.4 N 11 15 6 8 1015.7 1014.0 4.4
24/12:00am 23.8 24.8 16.8 65 4.4 NNE 7 9 4 5 1015.8 1014.1 4.4
 
Date/Time
EST
Temp
°C
App
Temp
°C
Dew
Point
Rel
Hum
%
Delta-T
°C
Wind Press
QNH
hPa
Press
MSL
hPa
Rain
since 9 am
mm
Dir
 
Spd
km/h
Gust
km/h
Spd
kts
Gust
kts
23/11:30pm 24.4 23.9 15.9 59 5.2 NNE 13 15 7 8 1015.9 1014.2 4.4
23/11:00pm 25.8 25.3 15.8 54 6.2 N 13 17 7 9 1015.9 1014.2 4.4
23/10:30pm 26.3 25.6 16.3 54 6.2 NNE 15 17 8 9 1015.7 1014.0 4.4
23/10:00pm 27.6 26.6 16.6 51 6.9 NNE 17 24 9 13 1015.5 1013.8 4.4
23/09:30pm 26.0 25.8 16.8 57 5.8 NE 13 15 7 8 1015.4 1013.7 4.4
23/09:00pm 26.7 26.1 16.6 54 6.3 NE 15 17 8 9 1015.2 1013.5 4.4
23/08:30pm 26.9 26.4 17.7 57 5.9 NE 17 20 9 11 1015.0 1013.3 4.4
23/08:00pm 26.2 26.3 19.1 65 4.6 NE 17 19 9 10 1014.6 1013.0 4.4
23/07:30pm 26.1 27.4 20.2 70 3.9 NE 13 13 7 7 1014.4 1012.8 4.4
23/07:00pm 26.9 29.6 20.3 67 4.4 NNE 6 7 3 4 1014.0 1012.3 4.4
23/06:30pm 27.8 31.3 20.4 64 4.9 NNE 2 7 1 4 1013.6 1011.9 4.4
23/06:00pm 28.5 30.5 20.0 60 5.6 N 9 11 5 6 1013.3 1011.6 4.4
23/05:30pm 27.6 30.6 21.2 68 4.3 WNW 7 11 4 6 1013.1 1011.4 4.4
23/05:00pm 27.5 28.3 20.6 66 4.6 W 17 20 9 11 1012.9 1011.2 4.4
23/04:30pm 28.5 28.6 20.0 60 5.6 W 19 22 10 12 1012.7 1011.0 4.4
23/04:00pm 28.8 28.4 19.4 56 6.2 WNW 20 32 11 17 1012.3 1010.6 4.2
23/03:49pm 26.9 25.4 16.8 54 6.4 W 20 32 11 17 1012.4 1010.7 4.2
23/03:39pm 26.3 21.4 17.4 58 5.6 WSW 39 52 21 28 1012.8 1011.1 4.0
23/03:30pm 29.9 31.7 21.8 62 5.5 WSW 15 24 8 13 1012.4 1010.7 4.0
23/03:24pm 30.8 31.5 18.8 48 7.9 S 13 24 7 13 1012.5 1010.8 3.6
23/03:21pm 27.3 21.3 14.3 45 7.9 SE 39 65 21 35 1012.9 1011.2 2.8
23/03:19pm 31.1 27.6 17.4 44 8.8 E 32 48 17 26 1012.7 1011.0 1.2
23/03:10pm 37.8 32.4 11.0 20 16.1 NNE 30 50 16 27 1012.1 1010.4 0.0
23/03:00pm 37.8 37.3 13.7 23 15.1 N 9 19 5 10 1012.5 1010.8 0.0
23/02:30pm 37.7 36.4 13.7 24 15.0 WNW 13 20 7 11 1013.0 1011.3 0.0
23/02:00pm 36.9 35.6 13.6 24 14.5 NW 13 20 7 11 1013.4 1011.7 0.0
23/01:30pm 36.7 35.3 13.5 25 14.4 NNW 13 24 7 13 1014.0 1012.3 0.0
23/01:00pm 36.7 35.7 14.6 26 13.9 N 13 26 7 14 1014.5 1012.9 0.0
23/12:30pm 36.1 35.7 15.2 28 13.3 NW 11 20 6 11 1015.1 1013.4 0.0
23/12:00pm 34.6 33.0 15.0 31 12.3 NNW 17 24 9 13 1015.8 1014.1 0.0
23/11:30am 34.1 33.1 15.5 32 11.8 N 15 24 8 13 1016.4 1014.7 0.0
23/11:00am 33.1 31.1 15.6 35 11.1 NNW 20 32 11 17 1016.7 1015.0 0.0
23/10:30am 32.5 30.5 15.5 36 10.7 N 20 28 11 15 1017.2 1015.6 0.0
23/10:00am 31.5 29.7 15.9 39 9.8 N 20 28 11 15 1017.5 1015.9 0.0
23/09:30am 29.6 27.3 15.7 43 8.7 N 22 30 12 16 1017.9 1016.2 0.0
23/09:00am 29.5 27.8 17.3 47 7.8 N 22 30 12 16 1018.1 1016.4 0.0
23/08:30am 27.9 25.7 16.8 50 7.0 N 24 32 13 17 1018.1 1016.4 0.0
23/08:00am 27.5 25.5 17.4 54 6.4 N 24 33 13 18 1018.2 1016.5 0.0
23/07:30am 26.8 25.3 17.6 57 5.9 N 22 30 12 16 1018.1 1016.4 0.0
23/07:00am 25.8 23.0 17.4 59 5.3 N 28 35 15 19 1017.7 1016.1 0.0
23/06:30am 24.8 22.7 18.0 66 4.3 N 26 33 14 18 1017.5 1015.9 0.0
23/06:00am 24.0 22.5 17.7 68 4.0 N 22 30 12 16 1017.1 1015.5 0.0
23/05:30am 23.1 22.7 18.0 73 3.2 N 17 20 9 11 1016.7 1015.0 0.0
23/05:00am 22.8 21.5 18.1 75 3.0 N 22 30 12 16 1016.3 1014.6 0.0
23/04:30am 22.7 21.5 18.5 77 2.7 NNW 22 30 12 16 1015.9 1014.2 0.0
23/04:00am 23.0 22.4 18.5 76 2.9 NNW 19 22 10 12 1015.4 1013.7 0.0
23/03:30am 23.6 23.5 18.7 74 3.1 N 17 24 9 13 1014.9 1013.2 0.0
23/03:00am 24.4 22.3 19.0 72 3.5 NNW 28 35 15 19 1014.6 1013.0 0.0
23/02:30am 24.6 24.4 19.4 73 3.4 N 19 30 10 16 1014.3 1012.6 0.0
23/02:00am 25.1 24.8 19.5 71 3.7 N 20 30 11 16 1014.1 1012.4 0.0
23/01:30am 25.6 25.0 19.7 70 3.9 N 22 30 12 16 1013.9 1012.2 0.0
23/01:00am 26.1 25.9 19.7 68 4.2 N 20 26 11 14 1014.1 1012.4 0.0
23/12:30am 26.5 26.9 19.9 67 4.3 N 17 24 9 13 1014.2 1012.5 0.0
23/12:00am 26.9 27.2 19.5 64 4.9 N 17 24 9 13 1014.4 1012.8 0.0
 
Date/Time
EST
Temp
°C
App
Temp
°C
Dew
Point
Rel
Hum
%
Delta-T
°C
Wind Press
QNH
hPa
Press
MSL
hPa
Rain
since 9 am
mm
Dir
 
Spd
km/h
Gust
km/h
Spd
kts
Gust
kts
22/11:30pm 27.7 26.2 19.5 61 5.4 N 26 35 14 19 1014.4 1012.8 0.0
22/11:00pm 28.3 26.8 19.5 59 5.8 N 26 32 14 17 1014.2 1012.5 0.0
22/10:30pm 28.9 27.8 19.5 57 6.2 N 24 33 13 18 1014.2 1012.5 0.0
22/10:00pm 29.7 28.3 18.8 52 7.1 N 24 32 13 17 1013.9 1012.2 0.0
22/09:30pm 30.6 28.1 18.0 47 8.2 N 28 35 15 19 1013.6 1011.9 0.0
22/09:00pm 31.5 28.8 16.6 40 9.5 NNE 26 33 14 18 1013.3 1011.6 0.0
22/08:30pm 32.3 30.3 14.9 35 10.9 N 19 26 10 14 1013.0 1011.3 0.0
22/08:00pm 32.5 30.8 14.6 34 11.1 N 17 24 9 13 1012.7 1011.0 0.0
22/07:30pm 33.0 31.1 14.1 32 11.7 N 17 24 9 13 1012.4 1010.7 0.0
22/07:00pm 32.9 31.3 14.0 32 11.7 NNE 15 19 8 10 1012.0 1010.3 0.0
22/06:30pm 33.5 31.0 14.0 30 12.1 NE 20 24 11 13 1011.3 1009.6 0.0
22/06:00pm 34.2 32.1 15.1 31 12.0 NE 20 26 11 14 1011.0 1009.3 0.0
22/05:30pm 35.0 33.4 13.8 28 13.1 N 15 37 8 20 1010.9 1009.2 0.0
22/05:00pm 37.1 35.6 11.8 22 15.4 N 11 17 6 9 1010.4 1008.7 0.0
22/04:30pm 37.5 36.3 11.5 21 15.7 N 9 17 5 9 1010.3 1008.6 0.0
22/04:00pm 37.5 35.0 12.2 22 15.5 NNW 17 28 9 15 1010.4 1008.7 0.0
22/03:30pm 37.1 34.7 12.5 23 15.1 NNW 17 28 9 15 1010.7 1009.0 0.0
22/03:00pm 37.5 35.0 13.5 24 15.0 NW 19 24 10 13 1010.8 1009.1 0.0
22/02:30pm 37.4 36.0 14.6 25 14.4 NW 15 22 8 12 1011.1 1009.4 0.0
22/02:00pm 36.6 35.8 15.1 27 13.7 NW 13 20 7 11 1011.6 1009.9 0.0
22/01:30pm 36.2 34.1 15.3 28 13.3 N 20 26 11 14 1012.2 1010.5 0.0
22/01:00pm 36.0 34.1 15.2 29 13.2 N 19 28 10 15 1012.6 1010.9 0.0
22/12:30pm 34.9 34.1 16.2 32 12.0 NNW 15 24 8 13 1013.2 1011.5 0.0
22/12:00pm 35.0 33.5 16.3 32 12.0 NNW 19 28 10 15 1013.8 1012.1 0.0
22/11:30am 33.8 32.1 16.2 35 11.2 NNW 20 35 11 19 1014.3 1012.6 0.0
22/11:00am 32.7 31.4 17.3 39 10.0 N 20 30 11 16 1014.7 1013.1 0.0
22/10:30am 33.2 31.7 18.5 41 9.7 NNW 24 39 13 21 1015.1 1013.4 0.0
22/10:00am 30.8 28.1 17.5 45 8.6 NNW 28 37 15 20 1015.5 1013.8 0.0
22/09:30am 30.1 27.2 17.9 48 7.9 NNW 30 37 16 20 1015.8 1014.1 0.0
22/09:00am 29.7 26.6 18.5 51 7.3 NNW 32 43 17 23 1015.8 1014.1 0.0
22/08:30am 28.2 24.9 18.3 55 6.4 NNW 33 43 18 23 1015.7 1014.0 0.0
22/08:00am 27.1 23.4 18.4 59 5.6 N 35 48 19 26 1015.9 1014.2 0.0
22/07:30am 26.5 23.3 18.6 62 5.1 N 33 46 18 25 1016.0 1014.3 0.0
22/07:00am 25.5 22.3 18.2 64 4.7 N 32 39 17 21 1015.8 1014.1 0.0
22/06:30am 25.0 22.2 18.2 66 4.3 N 30 37 16 20 1015.2 1013.5 0.0
22/06:00am 24.0 22.7 18.2 70 3.7 N 22 28 12 15 1014.7 1013.1 0.0
22/05:30am 23.3 22.3 18.0 72 3.4 N 20 24 11 13 1014.3 1012.6 0.0
22/05:00am 23.4 21.6 17.8 71 3.5 N 24 32 13 17 1013.6 1011.9 0.0
22/04:30am 23.5 22.4 17.7 70 3.7 N 20 26 11 14 1013.2 1011.5 0.0
22/04:00am 23.5 23.0 17.7 70 3.7 N 17 20 9 11 1013.0 1011.3 0.0
22/03:30am 23.8 22.9 17.8 69 3.8 N 19 26 10 14 1012.7 1011.0 0.0
22/03:00am 24.1 23.2 17.8 68 4.0 N 19 24 10 13 1012.5 1010.8 0.0
22/02:30am 24.4 23.9 17.9 67 4.1 N 17 20 9 11 1012.5 1010.8 0.0
22/02:00am 24.9 23.9 17.9 65 4.5 N 20 28 11 15 1012.1 1010.4 0.0
22/01:30am 25.2 24.5 18.2 65 4.5 N 19 26 10 14 1012.1 1010.4 0.0
22/01:00am 25.5 24.7 17.9 63 4.8 N 19 24 10 13 1012.3 1010.6 0.0
22/12:30am 25.9 25.0 18.1 62 5.0 N 20 32 11 17 1012.7 1011.0 0.0
22/12:00am 26.4 25.6 18.0 60 5.4 N 19 26 10 14 1013.0 1011.3 0.0
 
Date/Time
EST
Temp
°C
App
Temp
°C
Dew
Point
Rel
Hum
%
Delta-T
°C
Wind Press
QNH
hPa
Press
MSL
hPa
Rain
since 9 am
mm
Dir
 
Spd
km/h
Gust
km/h
Spd
kts
Gust
kts
21/11:30pm 27.1 25.8 18.1 58 5.8 N 22 30 12 16 1013.1 1011.4 0.0
21/11:00pm 27.2 24.8 16.5 52 6.7 N 24 28 13 15 1013.1 1011.4 0.0
21/10:30pm 26.5 26.2 14.3 47 7.4 E 9 11 5 6 1014.0 1012.3 0.0
21/10:00pm 26.9 25.7 15.0 48 7.3 NE 15 20 8 11 1013.8 1012.1 0.0
21/09:30pm 26.7 26.0 16.3 53 6.5 ESE 15 20 8 11 1014.3 1012.6 0.0
21/09:00pm 26.1 22.7 15.8 53 6.4 ESE 28 43 15 23 1014.0 1012.3 0.0
21/08:35pm 28.0 23.8 13.5 41 8.7 SE 28 48 15 26 1013.5 1011.8 0.0
21/08:30pm 30.5 29.8 15.4 40 9.4 ENE 13 19 7 10 1012.8 1011.1 0.0
21/08:00pm 31.0 27.7 15.0 38 10.0 N 26 35 14 19 1011.1 1009.4 0.0
21/07:30pm 31.3 27.6 14.9 37 10.2 N 28 33 15 18 1010.9 1009.2 0.0
21/07:00pm 31.6 28.6 14.7 36 10.5 N 24 30 13 16 1010.8 1009.1 0.0
21/06:30pm 32.6 29.6 14.7 34 11.2 N 24 32 13 17 1010.4 1008.7 0.0
21/06:00pm 33.2 30.2 14.8 33 11.5 N 24 33 13 18 1009.8 1008.1 0.0
21/05:30pm 34.3 30.1 14.7 30 12.3 N 30 37 16 20 1009.6 1007.9 0.0
21/05:00pm 35.2 32.1 14.5 29 13.0 N 24 33 13 18 1009.6 1007.9 0.0

Other Formats:

Comma delimited format used in spreadsheet applications
http://www.bom.gov.au/fwo/IDQ60801/IDQ60801.94542.axf

JavaScript Object Notation format (JSON) in row-major order
http://www.bom.gov.au/fwo/IDQ60801/IDQ60801.94542.json